createdAt,value
2023-03-15T00:00:23.904Z,81.71
2023-03-15T00:02:51.008Z,81.95
2023-03-15T00:05:18.068Z,82.08
2023-03-15T00:07:44.986Z,82.27
2023-03-15T00:10:12.004Z,81.95
2023-03-15T00:12:39.082Z,81.99
2023-03-15T00:15:06.463Z,81.75
2023-03-15T00:17:34.980Z,81.95
2023-03-15T00:20:02.288Z,81.97
2023-03-15T00:22:29.424Z,82.64
2023-03-15T00:24:56.793Z,83.12
2023-03-15T00:27:23.860Z,83.77
2023-03-15T00:29:50.874Z,83.13
2023-03-15T00:32:17.836Z,83.49
2023-03-15T00:34:49.298Z,83.48
2023-03-15T00:37:17.252Z,83.22
2023-03-15T00:39:45.739Z,83.11
2023-03-15T00:42:16.155Z,84.00
2023-03-15T00:44:43.825Z,84.14
2023-03-15T00:47:12.587Z,83.87
2023-03-15T00:49:39.738Z,83.60
2023-03-15T00:52:07.102Z,84.07
2023-03-15T00:54:34.376Z,84.11
2023-03-15T00:57:01.848Z,83.87
2023-03-15T00:59:29.417Z,83.95
2023-03-15T01:01:56.408Z,83.88
2023-03-15T01:04:23.339Z,83.42
2023-03-15T01:06:50.314Z,83.31
2023-03-15T01:09:17.992Z,83.55
2023-03-15T01:11:44.846Z,83.63
2023-03-15T01:14:11.825Z,84.10
2023-03-15T01:16:38.773Z,84.87
2023-03-15T01:19:05.959Z,84.47
2023-03-15T01:21:32.871Z,84.71
2023-03-15T01:23:59.804Z,85.51
2023-03-15T01:26:26.750Z,85.63
2023-03-15T01:28:53.682Z,85.10
2023-03-15T01:31:23.139Z,84.49
2023-03-15T01:33:50.109Z,84.76
2023-03-15T01:36:17.252Z,85.48
2023-03-15T01:38:44.188Z,85.26
2023-03-15T01:41:12.871Z,84.46
2023-03-15T01:43:40.062Z,84.50
2023-03-15T01:46:09.951Z,84.93
2023-03-15T01:48:39.962Z,84.89
2023-03-15T01:51:09.958Z,84.94
2023-03-15T01:53:37.719Z,84.76
2023-03-15T01:56:05.795Z,84.60
2023-03-15T01:58:36.018Z,84.91
2023-03-15T02:01:03.969Z,85.75
2023-03-15T02:03:36.181Z,85.33
2023-03-15T02:06:05.497Z,84.82
2023-03-15T02:08:36.429Z,85.03
2023-03-15T02:11:04.408Z,85.07
2023-03-15T02:13:33.274Z,85.24
2023-03-15T02:16:00.380Z,85.33
2023-03-15T02:18:27.409Z,85.48
2023-03-15T02:21:01.111Z,85.51
2023-03-15T02:23:28.700Z,85.42
2023-03-15T02:26:03.092Z,85.10
2023-03-15T02:28:30.876Z,85.45
2023-03-15T02:30:58.293Z,85.19
2023-03-15T02:33:28.283Z,84.78
2023-03-15T02:35:55.389Z,84.55
2023-03-15T02:38:23.756Z,84.65
2023-03-15T02:40:53.328Z,85.61
2023-03-15T02:43:23.532Z,84.93
2023-03-15T02:45:50.891Z,85.29
2023-03-15T02:48:18.612Z,85.43
2023-03-15T02:50:45.577Z,85.45
2023-03-15T02:53:12.703Z,85.44
2023-03-15T02:55:39.686Z,85.49
2023-03-15T02:58:06.627Z,86.14
2023-03-15T03:00:33.721Z,85.87
2023-03-15T03:03:00.840Z,85.65
2023-03-15T03:05:27.995Z,85.92
2023-03-15T03:07:55.431Z,86.06
2023-03-15T03:10:22.878Z,86.72
2023-03-15T03:12:53.803Z,86.43
2023-03-15T03:15:21.097Z,85.57
2023-03-15T03:17:48.091Z,85.67
2023-03-15T03:20:15.344Z,85.18
2023-03-15T03:22:42.522Z,85.03
2023-03-15T03:25:10.963Z,85.27
2023-03-15T03:27:37.988Z,85.34
2023-03-15T03:30:05.701Z,85.02
2023-03-15T03:32:32.549Z,85.31
2023-03-15T03:34:59.448Z,85.46
2023-03-15T03:37:26.481Z,85.81
2023-03-15T03:39:53.381Z,85.84
2023-03-15T03:42:20.530Z,85.64
2023-03-15T03:44:47.421Z,85.42
2023-03-15T03:47:14.348Z,85.72
2023-03-15T03:49:41.297Z,85.68
2023-03-15T03:52:09.083Z,86.10
2023-03-15T03:54:35.943Z,86.81
2023-03-15T03:57:02.750Z,86.31
2023-03-15T03:59:29.716Z,86.23
2023-03-15T04:01:56.583Z,86.10
2023-03-15T04:04:23.431Z,86.20
2023-03-15T04:06:51.151Z,86.73
2023-03-15T04:09:18.043Z,86.11
2023-03-15T04:11:45.029Z,85.82
2023-03-15T04:14:12.792Z,85.67
2023-03-15T04:16:39.875Z,86.10
2023-03-15T04:19:07.769Z,86.34
2023-03-15T04:21:34.827Z,86.75
2023-03-15T04:24:02.195Z,86.20
2023-03-15T04:26:29.212Z,85.66
2023-03-15T04:28:56.885Z,85.41
2023-03-15T04:31:27.406Z,85.84
2023-03-15T04:33:54.990Z,85.58
2023-03-15T04:36:22.272Z,85.95
2023-03-15T04:38:49.503Z,86.17
2023-03-15T04:41:17.817Z,85.96
2023-03-15T04:43:44.755Z,85.42
2023-03-15T04:46:11.804Z,85.18
2023-03-15T04:48:38.819Z,85.05
2023-03-15T04:51:05.990Z,85.25
2023-03-15T04:53:33.963Z,85.78
2023-03-15T04:56:03.039Z,86.39
2023-03-15T04:58:31.542Z,86.46
2023-03-15T05:00:58.425Z,86.52
2023-03-15T05:03:25.450Z,87.80
2023-03-15T05:05:52.374Z,87.84
2023-03-15T05:08:19.260Z,87.24
2023-03-15T05:10:46.211Z,86.68
2023-03-15T05:13:13.092Z,86.57
2023-03-15T05:15:40.179Z,86.43
2023-03-15T05:18:07.164Z,86.14
2023-03-15T05:20:34.139Z,86.86
2023-03-15T05:23:01.484Z,88.80
2023-03-15T05:25:28.400Z,88.54
2023-03-15T05:27:56.061Z,88.63
2023-03-15T05:30:23.012Z,89.57
2023-03-15T05:32:49.905Z,88.86
2023-03-15T05:35:16.877Z,88.10
2023-03-15T05:37:43.784Z,88.29
2023-03-15T05:40:11.821Z,88.22
2023-03-15T05:42:38.770Z,89.02
2023-03-15T05:45:06.185Z,88.35
2023-03-15T05:47:34.065Z,88.22
2023-03-15T05:50:01.062Z,88.13
2023-03-15T05:52:28.144Z,88.62
2023-03-15T05:54:55.049Z,88.94
2023-03-15T05:57:21.922Z,88.54
2023-03-15T05:59:48.817Z,88.17
2023-03-15T06:02:15.760Z,88.18
2023-03-15T06:04:42.939Z,88.16
2023-03-15T06:07:09.944Z,88.41
2023-03-15T06:09:36.928Z,88.40
2023-03-15T06:12:04.069Z,88.38
2023-03-15T06:14:30.936Z,88.69
2023-03-15T06:16:58.051Z,88.34
2023-03-15T06:19:24.996Z,88.68
2023-03-15T06:21:52.148Z,88.51
2023-03-15T06:24:19.324Z,88.99
2023-03-15T06:26:46.247Z,90.06
2023-03-15T06:29:13.253Z,90.08
2023-03-15T06:31:40.195Z,89.74
2023-03-15T06:34:07.202Z,89.94
2023-03-15T06:36:34.246Z,89.98
2023-03-15T06:39:03.243Z,89.59
2023-03-15T06:41:30.450Z,89.99
2023-03-15T06:43:57.540Z,90.39
2023-03-15T06:46:24.713Z,89.66
2023-03-15T06:48:52.298Z,89.49
2023-03-15T06:51:19.457Z,89.96
2023-03-15T06:53:46.395Z,89.64
2023-03-15T06:56:13.456Z,89.13
2023-03-15T06:58:40.754Z,88.33
2023-03-15T07:01:07.851Z,88.35
2023-03-15T07:03:34.962Z,89.29
2023-03-15T07:06:02.239Z,89.27
2023-03-15T07:08:29.444Z,88.70
2023-03-15T07:10:56.701Z,88.39
2023-03-15T07:13:23.788Z,88.15
2023-03-15T07:15:53.393Z,87.87
2023-03-15T07:18:20.662Z,87.66
2023-03-15T07:20:48.097Z,87.33
2023-03-15T07:23:15.405Z,87.88
2023-03-15T07:25:54.387Z,87.66
2023-03-15T07:28:22.699Z,88.17
2023-03-15T07:30:52.728Z,87.48
2023-03-15T07:33:23.158Z,86.21
2023-03-15T07:35:51.436Z,84.77
2023-03-15T07:38:18.672Z,84.97
2023-03-15T07:40:45.957Z,85.65
2023-03-15T07:43:13.203Z,84.44
2023-03-15T07:45:40.917Z,83.39
2023-03-15T07:48:08.128Z,80.93
2023-03-15T07:50:35.471Z,78.99
2023-03-15T07:53:03.723Z,79.31
2023-03-15T07:55:31.810Z,77.94
2023-03-15T07:58:01.153Z,78.80
2023-03-15T08:00:28.429Z,77.44
2023-03-15T08:02:55.890Z,76.75
2023-03-15T08:05:23.131Z,77.58
2023-03-15T08:07:50.394Z,80.64
2023-03-15T08:10:17.937Z,79.19
2023-03-15T08:12:45.085Z,79.17
2023-03-15T08:15:13.359Z,78.16
2023-03-15T08:17:41.633Z,78.71
2023-03-15T08:20:11.994Z,78.56
2023-03-15T08:22:39.330Z,79.50
2023-03-15T08:25:07.061Z,80.25
2023-03-15T08:27:34.479Z,79.51
2023-03-15T08:30:01.838Z,77.96
2023-03-15T08:32:29.411Z,77.02
2023-03-15T08:34:57.683Z,76.63
2023-03-15T08:37:24.925Z,75.79
2023-03-15T08:40:01.353Z,76.53
2023-03-15T08:42:28.986Z,77.44
2023-03-15T08:45:00.072Z,74.57
2023-03-15T08:47:27.213Z,74.51
2023-03-15T08:49:54.351Z,75.48
2023-03-15T08:52:22.011Z,75.58
2023-03-15T08:54:49.607Z,76.25
2023-03-15T08:57:16.743Z,75.66
2023-03-15T08:59:44.027Z,75.07
2023-03-15T09:02:14.025Z,74.98
2023-03-15T09:04:41.112Z,73.54
2023-03-15T09:07:08.416Z,73.51
2023-03-15T09:09:42.036Z,73.42
2023-03-15T09:12:09.277Z,72.86
2023-03-15T09:14:36.574Z,73.84
2023-03-15T09:17:03.990Z,73.77
2023-03-15T09:19:32.898Z,73.50
2023-03-15T09:22:15.910Z,72.60
2023-03-15T09:24:44.516Z,72.43
2023-03-15T09:27:26.212Z,72.69
2023-03-15T09:29:53.300Z,72.84
2023-03-15T09:32:21.493Z,74.11
2023-03-15T09:34:48.793Z,73.37
2023-03-15T09:37:15.831Z,71.98
2023-03-15T09:39:43.241Z,72.35
2023-03-15T09:42:13.437Z,71.96
2023-03-15T09:44:46.477Z,71.89
2023-03-15T09:47:15.600Z,71.08
2023-03-15T09:49:44.435Z,70.91
2023-03-15T09:52:18.529Z,69.67
2023-03-15T09:54:52.663Z,69.15
2023-03-15T09:57:26.592Z,68.80
2023-03-15T09:59:55.331Z,68.17
2023-03-15T10:02:24.954Z,67.78
2023-03-15T10:04:57.152Z,67.63
2023-03-15T10:07:25.336Z,66.92
2023-03-15T10:09:52.848Z,67.06
2023-03-15T10:12:27.239Z,65.76
2023-03-15T10:14:56.028Z,65.65
2023-03-15T10:17:30.034Z,65.44
2023-03-15T10:20:01.730Z,63.89
2023-03-15T10:22:36.196Z,64.17
2023-03-15T10:25:10.252Z,63.58
2023-03-15T10:27:40.974Z,63.08
2023-03-15T10:30:23.936Z,62.43
2023-03-15T10:33:21.371Z,60.14
2023-03-15T10:39:06.668Z,58.89
2023-03-15T10:41:37.587Z,58.73
2023-03-15T10:44:06.291Z,57.92
2023-03-15T10:46:33.978Z,57.70
2023-03-15T10:49:12.353Z,57.73
2023-03-15T10:51:41.734Z,58.39
2023-03-15T10:54:13.004Z,58.08
2023-03-15T10:56:43.020Z,58.47
2023-03-15T10:59:19.145Z,58.55
2023-03-15T11:01:48.832Z,59.21
2023-03-15T11:04:17.134Z,58.44
2023-03-15T11:06:46.298Z,58.70
2023-03-15T11:09:15.396Z,58.77
2023-03-15T11:11:45.307Z,58.94
2023-03-15T11:14:12.824Z,58.24
2023-03-15T11:16:40.384Z,58.26
2023-03-15T11:19:15.536Z,58.63
2023-03-15T11:21:42.834Z,56.86
2023-03-15T11:24:19.791Z,56.25
2023-03-15T11:26:52.008Z,55.76
2023-03-15T11:29:23.380Z,56.23
2023-03-15T11:31:51.571Z,56.73
2023-03-15T11:34:21.868Z,54.75
2023-03-15T11:37:05.272Z,56.14
2023-03-15T11:39:40.043Z,57.63
2023-03-15T11:42:11.242Z,56.07
2023-03-15T11:44:40.883Z,55.80
2023-03-15T11:47:13.625Z,54.69
2023-03-15T11:49:44.072Z,54.25
2023-03-15T11:52:14.019Z,54.16
2023-03-15T11:54:41.215Z,55.15
2023-03-15T11:57:28.245Z,55.46
2023-03-15T11:59:55.952Z,53.53
2023-03-15T12:02:23.428Z,53.35
2023-03-15T12:04:51.773Z,53.18
2023-03-15T12:07:19.148Z,53.63
2023-03-15T12:09:48.402Z,54.21
2023-03-15T12:12:18.412Z,52.82
2023-03-15T12:14:47.987Z,52.75
2023-03-15T12:17:18.252Z,53.19
2023-03-15T12:19:45.377Z,51.67
2023-03-15T12:22:16.057Z,52.30
2023-03-15T12:24:44.990Z,50.94
2023-03-15T12:27:15.997Z,50.75
2023-03-15T12:29:45.889Z,50.84
2023-03-15T12:32:15.146Z,51.72
2023-03-15T12:34:45.446Z,52.90
2023-03-15T12:37:16.010Z,53.59
2023-03-15T12:39:46.183Z,52.79
2023-03-15T12:42:14.531Z,52.58
2023-03-15T12:44:43.215Z,51.90
2023-03-15T12:47:13.270Z,53.48
2023-03-15T12:49:43.409Z,52.96
2023-03-15T12:52:18.503Z,52.79
2023-03-15T12:54:52.557Z,52.17
2023-03-15T12:57:22.322Z,50.71
2023-03-15T12:59:50.787Z,51.19
2023-03-15T13:02:20.325Z,52.33
2023-03-15T13:04:50.345Z,53.57
2023-03-15T13:07:24.091Z,53.25
2023-03-15T13:09:52.401Z,53.48
2023-03-15T13:12:29.588Z,54.62
2023-03-15T13:15:00.469Z,55.55
2023-03-15T13:17:36.017Z,55.73
2023-03-15T13:20:14.044Z,56.06
2023-03-15T13:22:55.495Z,56.94
2023-03-15T13:25:23.941Z,56.71
2023-03-15T13:27:54.168Z,56.69
2023-03-15T13:30:21.992Z,56.21
2023-03-15T13:32:49.309Z,55.76
2023-03-15T13:35:24.792Z,56.54
2023-03-15T13:38:01.669Z,57.82
2023-03-15T13:40:28.984Z,57.26
2023-03-15T13:43:00.225Z,57.26
2023-03-15T13:45:27.535Z,56.81
2023-03-15T13:47:55.736Z,57.59
2023-03-15T13:50:23.545Z,59.27
2023-03-15T13:52:51.163Z,57.50
2023-03-15T13:55:21.613Z,57.86
2023-03-15T13:58:14.866Z,56.80
2023-03-15T14:00:42.190Z,56.76
2023-03-15T14:03:15.798Z,57.27
2023-03-15T14:05:44.865Z,56.67
2023-03-15T14:08:23.172Z,58.24
2023-03-15T14:10:53.662Z,56.76
2023-03-15T14:13:25.835Z,57.90
2023-03-15T14:15:57.130Z,57.00
2023-03-15T14:18:25.637Z,57.73
2023-03-15T14:20:55.304Z,58.20
2023-03-15T14:23:23.799Z,58.91
2023-03-15T14:25:53.097Z,60.30
2023-03-15T14:28:21.390Z,59.92
2023-03-15T14:30:51.515Z,58.49
2023-03-15T14:33:21.929Z,59.41
2023-03-15T14:35:49.172Z,58.96
2023-03-15T14:38:22.578Z,60.20
2023-03-15T14:40:50.737Z,59.27
2023-03-15T14:43:19.050Z,58.56
2023-03-15T14:45:47.737Z,59.88
2023-03-15T14:48:28.503Z,59.38
2023-03-15T14:50:56.430Z,58.56
2023-03-15T14:53:25.420Z,59.82
2023-03-15T14:55:52.593Z,59.93
2023-03-15T14:58:21.152Z,59.85
2023-03-15T15:00:50.087Z,59.95
2023-03-15T15:03:24.550Z,60.56
2023-03-15T15:05:52.093Z,60.26
2023-03-15T15:08:22.618Z,60.73
2023-03-15T15:10:51.095Z,60.36
2023-03-15T15:13:24.832Z,60.82
2023-03-15T15:15:56.217Z,60.90
2023-03-15T15:18:39.483Z,61.29
2023-03-15T15:21:10.744Z,61.41
2023-03-15T15:23:54.946Z,62.68
2023-03-15T15:26:27.196Z,61.80
2023-03-15T15:28:54.862Z,61.23
2023-03-15T15:31:23.187Z,62.03
2023-03-15T15:33:50.734Z,62.78
2023-03-15T15:36:22.976Z,62.62
2023-03-15T15:38:50.225Z,62.49
2023-03-15T15:41:20.370Z,63.94
2023-03-15T15:43:47.865Z,63.81
2023-03-15T15:46:15.786Z,64.16
2023-03-15T15:48:43.367Z,63.69
2023-03-15T15:51:16.198Z,63.63
2023-03-15T15:53:43.536Z,64.65
2023-03-15T15:56:13.299Z,65.03
2023-03-15T15:58:41.628Z,65.76
2023-03-15T16:02:00.013Z,65.61
2023-03-15T16:04:29.338Z,65.78
2023-03-15T16:06:59.495Z,67.53
2023-03-15T16:09:28.757Z,67.47
2023-03-15T16:11:56.366Z,67.60
2023-03-15T16:14:28.191Z,67.83
2023-03-15T16:17:00.602Z,69.66
2023-03-15T16:19:28.212Z,70.85
2023-03-15T16:21:55.817Z,71.77
2023-03-15T16:24:26.099Z,73.18
2023-03-15T16:26:57.969Z,73.04
2023-03-15T16:29:28.217Z,73.12
2023-03-15T16:32:06.578Z,74.22
2023-03-15T16:34:42.347Z,75.26
2023-03-15T16:37:14.280Z,76.44
2023-03-15T16:39:47.414Z,76.62
2023-03-15T16:42:16.091Z,76.61
2023-03-15T16:44:44.042Z,77.44
2023-03-15T16:47:12.100Z,77.85
2023-03-15T16:49:40.688Z,78.82
2023-03-15T16:52:13.565Z,79.80
2023-03-15T16:54:42.376Z,79.74
2023-03-15T16:57:13.192Z,80.11
2023-03-15T16:59:40.768Z,80.36
2023-03-15T17:02:11.611Z,80.40
2023-03-15T17:04:39.592Z,80.88
2023-03-15T17:07:08.040Z,81.74
2023-03-15T17:09:35.797Z,82.60
2023-03-15T17:12:03.412Z,82.86
2023-03-15T17:14:32.668Z,83.18
2023-03-15T17:17:00.127Z,83.66
2023-03-15T17:19:27.613Z,83.96
2023-03-15T17:25:24.055Z,83.97
2023-03-15T17:28:09.972Z,84.57
2023-03-15T17:36:39.031Z,85.48
2023-03-15T17:39:07.845Z,86.23
2023-03-15T17:41:39.156Z,86.74
2023-03-15T17:44:08.089Z,87.08
2023-03-15T17:46:41.716Z,88.11
2023-03-15T17:49:11.812Z,87.47
2023-03-15T17:51:39.604Z,87.66
2023-03-15T17:54:10.134Z,88.02
2023-03-15T17:56:37.282Z,87.58
2023-03-15T17:59:05.337Z,87.93
2023-03-15T18:01:32.725Z,88.22
2023-03-15T18:04:00.085Z,88.42
2023-03-15T18:06:27.285Z,88.77
2023-03-15T18:08:54.484Z,88.60
2023-03-15T18:11:24.637Z,89.40
2023-03-15T18:13:52.220Z,89.01
2023-03-15T18:19:43.568Z,89.32
2023-03-15T18:22:18.256Z,89.49
2023-03-15T18:24:47.291Z,89.58
2023-03-15T18:27:15.833Z,89.42
2023-03-15T18:29:43.578Z,89.90
2023-03-15T18:32:11.604Z,90.07
2023-03-15T18:34:39.692Z,90.69
2023-03-15T18:37:08.003Z,90.43
2023-03-15T18:39:35.251Z,90.21
2023-03-15T18:42:02.924Z,90.42
2023-03-15T18:44:31.150Z,89.85
2023-03-15T18:46:58.546Z,89.70
2023-03-15T18:49:26.236Z,89.54
2023-03-15T18:51:56.804Z,89.53
2023-03-15T18:54:25.587Z,89.54
2023-03-15T18:56:52.974Z,89.80
2023-03-15T18:59:20.617Z,90.57
2023-03-15T19:01:50.169Z,90.35
2023-03-15T19:04:17.688Z,90.48
2023-03-15T19:10:07.064Z,91.42
2023-03-15T19:12:34.117Z,91.87
2023-03-15T19:15:05.933Z,91.25
2023-03-15T19:17:36.648Z,91.09
2023-03-15T19:20:04.192Z,91.28
2023-03-15T19:22:31.694Z,90.91
2023-03-15T19:24:58.376Z,91.00
2023-03-15T19:27:25.304Z,90.15
2023-03-15T19:29:52.247Z,89.75
2023-03-15T19:32:20.617Z,89.46
2023-03-15T19:34:50.095Z,89.74
2023-03-15T19:37:16.984Z,90.19
2023-03-15T19:42:51.650Z,90.27
2023-03-15T19:45:42.133Z,90.14
2023-03-15T19:48:27.987Z,90.21
2023-03-15T19:51:21.831Z,90.20
2023-03-15T19:54:09.540Z,90.08
2023-03-15T19:56:58.368Z,90.03
2023-03-15T19:59:54.096Z,89.93
2023-03-15T20:02:48.928Z,89.83
2023-03-15T20:05:39.089Z,89.67
2023-03-15T20:08:26.645Z,90.21
2023-03-15T20:11:23.623Z,90.73
2023-03-15T20:14:11.985Z,91.15
2023-03-15T20:16:59.465Z,92.73
2023-03-15T20:19:51.312Z,93.47
2023-03-15T20:22:44.265Z,92.39
2023-03-15T20:25:12.175Z,91.84
2023-03-15T20:27:38.991Z,91.36
2023-03-15T20:30:06.324Z,91.26
2023-03-15T20:32:33.303Z,90.75
2023-03-15T20:35:01.325Z,91.60
2023-03-15T20:37:29.308Z,91.71
2023-03-15T20:39:56.112Z,91.13
2023-03-15T20:42:24.009Z,90.90
2023-03-15T20:44:50.710Z,91.15
2023-03-15T20:47:17.461Z,90.59
2023-03-15T20:49:44.118Z,90.20
2023-03-15T20:52:11.249Z,90.52
2023-03-15T20:54:37.974Z,90.40
2023-03-15T20:57:04.661Z,89.74
2023-03-15T20:59:32.046Z,90.10
2023-03-15T21:01:58.766Z,90.22
2023-03-15T21:04:29.824Z,90.69
2023-03-15T21:06:56.726Z,90.16
2023-03-15T21:09:32.043Z,90.56
2023-03-15T21:12:01.218Z,90.49
2023-03-15T21:14:28.001Z,89.91
2023-03-15T21:16:55.083Z,90.26
2023-03-15T21:19:23.072Z,89.78
2023-03-15T21:21:49.730Z,89.96
2023-03-15T21:24:16.444Z,90.53
2023-03-15T21:26:45.215Z,91.30
2023-03-15T21:29:12.499Z,91.43
2023-03-15T21:31:39.296Z,91.80
2023-03-15T21:34:06.912Z,91.21
2023-03-15T21:36:57.030Z,90.80
2023-03-15T21:39:24.006Z,90.96
2023-03-15T21:41:51.165Z,91.48
2023-03-15T21:44:18.584Z,91.45
2023-03-15T21:46:45.849Z,91.40
2023-03-15T21:49:12.957Z,92.13
2023-03-15T21:51:40.623Z,91.82
2023-03-15T21:54:10.312Z,91.39
2023-03-15T21:56:37.449Z,91.50
2023-03-15T21:59:06.378Z,91.49
2023-03-15T22:01:34.400Z,91.79
2023-03-15T22:04:01.208Z,91.69
2023-03-15T22:06:27.929Z,92.16
2023-03-15T22:08:55.026Z,92.41
2023-03-15T22:11:23.026Z,92.50
2023-03-15T22:13:49.876Z,92.78
2023-03-15T22:16:17.832Z,92.98
2023-03-15T22:18:44.696Z,93.36
2023-03-15T22:21:11.463Z,93.83
2023-03-15T22:23:38.333Z,94.41
2023-03-15T22:26:05.157Z,94.62
2023-03-15T22:28:32.411Z,94.57
2023-03-15T22:30:59.271Z,94.53
2023-03-15T22:33:26.059Z,94.29
2023-03-15T22:35:57.064Z,94.31
2023-03-15T22:38:25.187Z,94.78
2023-03-15T22:40:59.541Z,95.04
2023-03-15T22:43:33.237Z,95.30
2023-03-15T22:46:12.445Z,95.63
2023-03-15T22:48:39.138Z,95.53
2023-03-15T22:51:07.534Z,95.86
2023-03-15T22:53:34.215Z,96.17
2023-03-15T22:56:12.606Z,96.19
2023-03-15T23:05:07.877Z,96.18
2023-03-15T23:08:04.980Z,96.61
2023-03-15T23:10:36.152Z,96.89
2023-03-15T23:13:04.083Z,97.00
2023-03-15T23:15:36.650Z,97.41
2023-03-15T23:18:09.129Z,97.85
2023-03-15T23:20:36.320Z,98.37
2023-03-15T23:23:03.150Z,98.80
2023-03-15T23:25:30.187Z,98.39
2023-03-15T23:28:03.487Z,98.39
2023-03-15T23:30:35.765Z,98.35
2023-03-15T23:33:04.060Z,98.34
2023-03-15T23:35:32.064Z,98.57
2023-03-15T23:38:06.959Z,97.17
2023-03-15T23:40:33.717Z,97.80
2023-03-15T23:43:00.365Z,98.18
2023-03-15T23:45:29.732Z,98.49
2023-03-15T23:47:56.858Z,98.64
2023-03-15T23:50:26.393Z,98.34
2023-03-15T23:52:53.898Z,97.96
2023-03-15T23:55:21.116Z,98.03
2023-03-15T23:57:48.217Z,98.73
